createdAt,value
2023-03-29T00:01:47.991Z,3.17
2023-03-29T00:04:15.776Z,3.07
2023-03-29T00:06:47.668Z,2.73
2023-03-29T00:09:15.570Z,2.90
2023-03-29T00:11:43.561Z,2.63
2023-03-29T00:14:12.608Z,3.40
2023-03-29T00:16:40.404Z,3.00
2023-03-29T00:19:07.828Z,2.93
2023-03-29T00:21:35.208Z,2.50
2023-03-29T00:24:02.632Z,3.00
2023-03-29T00:26:30.022Z,3.20
2023-03-29T00:28:57.445Z,3.20
2023-03-29T00:31:26.455Z,3.27
2023-03-29T00:33:54.053Z,2.80
2023-03-29T00:36:23.444Z,2.97
2023-03-29T00:38:50.956Z,3.70
2023-03-29T00:41:18.460Z,2.73
2023-03-29T00:43:54.130Z,2.93
2023-03-29T00:46:21.974Z,2.77
2023-03-29T00:48:53.230Z,2.63
2023-03-29T00:51:23.982Z,3.10
2023-03-29T00:53:56.318Z,2.93
2023-03-29T00:56:27.759Z,3.33
2023-03-29T00:58:59.786Z,2.90
2023-03-29T01:01:34.047Z,3.10
2023-03-29T01:04:08.441Z,2.60
2023-03-29T01:06:39.232Z,3.00
2023-03-29T01:09:10.284Z,2.80
2023-03-29T01:11:40.991Z,2.53
2023-03-29T01:14:15.262Z,2.83
2023-03-29T01:16:42.809Z,2.40
2023-03-29T01:19:16.521Z,3.10
2023-03-29T01:21:49.299Z,2.97
2023-03-29T01:24:45.322Z,2.90
2023-03-29T01:27:18.060Z,2.60
2023-03-29T01:29:53.979Z,2.83
2023-03-29T01:32:27.174Z,2.83
2023-03-29T01:35:00.963Z,2.53
2023-03-29T01:37:34.201Z,2.33
2023-03-29T01:40:02.130Z,14.70
2023-03-29T01:42:42.397Z,12.13
2023-03-29T01:45:21.859Z,3.43
2023-03-29T01:47:57.628Z,2.63
2023-03-29T01:50:36.682Z,3.13
2023-03-29T01:53:09.702Z,2.60
2023-03-29T01:55:40.650Z,3.43
2023-03-29T01:58:11.582Z,3.17
2023-03-29T02:00:43.772Z,2.67
2023-03-29T02:03:14.835Z,2.77
2023-03-29T02:05:43.373Z,2.40
2023-03-29T02:08:15.341Z,2.60
2023-03-29T02:10:43.250Z,2.90
2023-03-29T02:13:11.036Z,3.10
2023-03-29T02:15:39.784Z,2.67
2023-03-29T02:18:07.831Z,2.90
2023-03-29T02:20:40.527Z,2.60
2023-03-29T02:23:14.268Z,3.10
2023-03-29T02:25:42.067Z,3.07
2023-03-29T02:28:09.652Z,2.93
2023-03-29T02:30:47.752Z,3.00
2023-03-29T02:33:19.297Z,2.67
2023-03-29T02:35:53.241Z,2.70
2023-03-29T02:38:22.164Z,2.70
2023-03-29T02:40:49.593Z,2.80
2023-03-29T02:43:17.640Z,2.83
2023-03-29T02:45:47.858Z,2.40
2023-03-29T02:48:19.088Z,2.63
2023-03-29T02:50:50.376Z,2.80
2023-03-29T02:53:20.130Z,3.00
2023-03-29T02:55:47.781Z,3.07
2023-03-29T02:58:15.537Z,2.77
2023-03-29T03:00:47.192Z,2.87
2023-03-29T03:03:16.753Z,3.03
2023-03-29T03:05:44.391Z,2.73
2023-03-29T03:08:11.792Z,2.67
2023-03-29T03:10:39.810Z,2.77
2023-03-29T03:13:07.261Z,2.87
2023-03-29T03:15:35.714Z,3.07
2023-03-29T03:18:05.212Z,2.73
2023-03-29T03:20:33.292Z,3.20
2023-03-29T03:23:03.329Z,3.90
2023-03-29T03:25:31.653Z,2.90
2023-03-29T03:27:59.133Z,2.97
2023-03-29T03:30:27.129Z,3.00
2023-03-29T03:32:55.509Z,3.20
2023-03-29T03:35:24.326Z,2.40
2023-03-29T03:37:51.809Z,2.53
2023-03-29T03:40:19.386Z,2.67
2023-03-29T03:42:46.814Z,3.00
2023-03-29T03:45:14.635Z,2.70
2023-03-29T03:47:42.241Z,2.57
2023-03-29T03:50:11.504Z,2.97
2023-03-29T03:52:40.275Z,3.03
2023-03-29T03:55:08.226Z,3.00
2023-03-29T03:57:37.438Z,2.40
2023-03-29T04:00:19.322Z,2.60
2023-03-29T04:02:48.334Z,2.97
2023-03-29T04:05:17.122Z,3.83
2023-03-29T04:07:45.887Z,3.20
2023-03-29T04:10:13.697Z,3.73
2023-03-29T04:12:41.104Z,4.00
2023-03-29T04:15:10.442Z,3.20
2023-03-29T04:17:38.543Z,2.90
2023-03-29T04:20:11.494Z,3.20
2023-03-29T04:22:39.196Z,3.33
2023-03-29T04:25:10.405Z,3.17
2023-03-29T04:27:37.970Z,3.40
2023-03-29T04:30:07.211Z,2.97
2023-03-29T04:32:34.715Z,3.00
2023-03-29T04:35:02.444Z,3.93
2023-03-29T04:37:29.900Z,4.03
2023-03-29T04:39:57.290Z,3.73
2023-03-29T04:42:26.008Z,3.67
2023-03-29T04:44:53.533Z,3.60
2023-03-29T04:47:21.189Z,3.50
2023-03-29T04:49:48.587Z,3.13
2023-03-29T04:52:16.072Z,3.50
2023-03-29T04:54:43.476Z,3.97
2023-03-29T04:57:10.914Z,3.80
2023-03-29T04:59:39.658Z,3.90
2023-03-29T05:02:07.305Z,3.50
2023-03-29T05:04:36.464Z,3.20
2023-03-29T05:07:04.556Z,3.67
2023-03-29T05:09:34.271Z,7.03
2023-03-29T05:12:03.108Z,4.70
2023-03-29T05:14:30.675Z,4.07
2023-03-29T05:16:59.640Z,3.77
2023-03-29T05:19:27.855Z,3.53
2023-03-29T05:21:55.279Z,4.27
2023-03-29T05:24:22.715Z,3.97
2023-03-29T05:26:51.752Z,4.40
2023-03-29T05:29:19.364Z,3.90
2023-03-29T05:31:47.218Z,4.17
2023-03-29T05:34:15.990Z,5.00
2023-03-29T05:36:45.349Z,5.30
2023-03-29T05:39:12.835Z,4.53
2023-03-29T05:41:41.582Z,3.90
2023-03-29T05:44:09.051Z,4.40
2023-03-29T05:46:36.735Z,4.60
2023-03-29T05:49:05.126Z,4.53
2023-03-29T05:51:35.351Z,4.10
2023-03-29T05:54:02.820Z,4.63
2023-03-29T05:56:30.419Z,4.67
2023-03-29T05:58:58.659Z,5.37
2023-03-29T06:01:26.256Z,4.80
2023-03-29T06:03:53.730Z,5.37
2023-03-29T06:06:21.295Z,4.33
2023-03-29T06:08:50.605Z,5.17
2023-03-29T06:11:18.118Z,5.03
2023-03-29T06:13:45.774Z,4.83
2023-03-29T06:16:13.937Z,4.70
2023-03-29T06:18:41.499Z,4.37
2023-03-29T06:21:09.699Z,5.03
2023-03-29T06:23:37.680Z,5.00
2023-03-29T06:26:07.550Z,4.37
2023-03-29T06:28:35.612Z,3.97
2023-03-29T06:31:05.165Z,3.90
2023-03-29T06:33:34.079Z,3.93
2023-03-29T06:36:01.748Z,4.10
2023-03-29T06:38:29.208Z,4.00
2023-03-29T06:41:02.368Z,5.53
2023-03-29T06:43:33.393Z,3.97
2023-03-29T06:46:01.749Z,4.07
2023-03-29T06:48:29.707Z,4.20
2023-03-29T06:50:57.301Z,4.07
2023-03-29T06:53:24.748Z,3.67
2023-03-29T06:55:52.728Z,4.00
2023-03-29T06:58:20.545Z,4.20
2023-03-29T07:00:49.307Z,3.93
2023-03-29T07:03:23.321Z,4.33
2023-03-29T07:05:52.028Z,3.87
2023-03-29T07:08:21.415Z,3.53
2023-03-29T07:10:52.566Z,3.90
2023-03-29T07:13:20.173Z,3.77
2023-03-29T07:15:48.927Z,3.87
2023-03-29T07:18:17.171Z,3.63
2023-03-29T07:20:44.948Z,3.70
2023-03-29T07:23:12.390Z,3.63
2023-03-29T07:25:41.016Z,3.97
2023-03-29T07:28:09.102Z,3.50
2023-03-29T07:30:37.153Z,4.40
2023-03-29T07:33:06.055Z,4.53
2023-03-29T07:35:33.581Z,4.23
2023-03-29T07:38:01.029Z,3.60
2023-03-29T07:40:28.486Z,3.80
2023-03-29T07:42:57.453Z,3.80
2023-03-29T07:45:29.090Z,3.70
2023-03-29T07:47:59.004Z,3.53
2023-03-29T07:50:28.496Z,3.93
2023-03-29T07:52:56.824Z,3.90
2023-03-29T07:55:24.344Z,3.57
2023-03-29T07:57:51.719Z,3.90
2023-03-29T08:00:20.312Z,4.23
2023-03-29T08:02:49.741Z,4.17
2023-03-29T08:05:26.152Z,3.87
2023-03-29T08:08:02.577Z,5.27
2023-03-29T08:10:30.048Z,3.87
2023-03-29T08:12:58.062Z,3.87
2023-03-29T08:15:26.405Z,3.93
2023-03-29T08:17:53.861Z,4.27
2023-03-29T08:20:21.549Z,3.33
2023-03-29T08:22:49.346Z,3.63
2023-03-29T08:25:19.230Z,4.83
2023-03-29T08:27:46.714Z,4.40
2023-03-29T08:30:14.992Z,3.40
2023-03-29T08:32:42.772Z,3.37
2023-03-29T08:35:10.892Z,3.60
2023-03-29T08:37:38.653Z,3.77
2023-03-29T08:40:07.646Z,4.10
2023-03-29T08:42:50.275Z,3.40
2023-03-29T08:45:26.589Z,4.03
2023-03-29T08:48:00.853Z,3.87
2023-03-29T08:50:34.547Z,3.17
2023-03-29T08:53:05.111Z,3.30
2023-03-29T08:55:36.844Z,3.63
2023-03-29T08:58:09.047Z,2.90
2023-03-29T09:00:41.221Z,3.07
2023-03-29T09:03:15.719Z,3.40
2023-03-29T09:05:47.344Z,3.63
2023-03-29T09:08:17.448Z,3.20
2023-03-29T09:10:48.667Z,2.90
2023-03-29T09:13:30.292Z,3.13
2023-03-29T09:16:06.168Z,3.10
2023-03-29T09:18:44.560Z,3.37
2023-03-29T09:21:18.043Z,3.37
2023-03-29T09:24:05.530Z,3.37
2023-03-29T09:26:42.118Z,2.93
2023-03-29T09:29:26.962Z,3.20
2023-03-29T09:31:56.144Z,2.77
2023-03-29T09:34:24.946Z,3.43
2023-03-29T09:36:54.171Z,2.93
2023-03-29T09:39:23.345Z,4.60
2023-03-29T09:41:56.813Z,3.90
2023-03-29T09:44:31.593Z,3.00
2023-03-29T09:47:03.689Z,3.50
2023-03-29T09:49:36.902Z,2.70
2023-03-29T09:52:09.829Z,2.90
2023-03-29T09:54:37.396Z,3.00
2023-03-29T09:57:04.951Z,3.70
2023-03-29T09:59:33.889Z,3.30
2023-03-29T10:02:08.573Z,3.60
2023-03-29T10:04:37.622Z,3.20
2023-03-29T10:07:06.631Z,3.10
2023-03-29T10:09:35.065Z,3.17
2023-03-29T10:12:07.230Z,3.10
2023-03-29T10:14:38.170Z,3.60
2023-03-29T10:17:14.644Z,3.33
2023-03-29T10:19:49.370Z,2.93
2023-03-29T10:22:19.883Z,3.17
2023-03-29T10:24:52.207Z,2.90
2023-03-29T10:27:23.330Z,3.00
2023-03-29T10:29:52.900Z,2.93
2023-03-29T10:32:29.577Z,3.43
2023-03-29T10:35:03.814Z,3.47
2023-03-29T10:37:31.573Z,3.07
2023-03-29T10:39:59.183Z,3.53
2023-03-29T10:42:27.422Z,3.17
2023-03-29T10:44:58.510Z,4.00
2023-03-29T10:47:27.024Z,2.93
2023-03-29T10:49:57.150Z,3.30
2023-03-29T10:52:25.100Z,3.80
2023-03-29T10:54:55.369Z,3.30
2023-03-29T10:57:32.479Z,2.90
2023-03-29T11:00:08.704Z,2.77
2023-03-29T11:03:04.185Z,3.50
2023-03-29T11:05:38.623Z,3.13
2023-03-29T11:08:36.843Z,7.30
2023-03-29T11:11:17.268Z,7.17
2023-03-29T11:13:54.225Z,7.10
2023-03-29T11:16:30.987Z,6.33
2023-03-29T11:19:13.388Z,5.43
2023-03-29T11:21:46.241Z,5.77
2023-03-29T11:24:27.277Z,4.10
2023-03-29T11:27:05.490Z,5.57
2023-03-29T11:29:43.461Z,9.20
2023-03-29T11:32:16.266Z,3.10
2023-03-29T11:34:57.313Z,3.10
2023-03-29T11:37:33.637Z,3.60
2023-03-29T11:40:17.033Z,2.60
2023-03-29T11:42:49.167Z,4.10
2023-03-29T11:45:24.376Z,3.50
2023-03-29T11:47:55.501Z,2.60
2023-03-29T11:50:27.100Z,2.83
2023-03-29T11:52:59.794Z,3.07
2023-03-29T11:55:31.188Z,3.10
2023-03-29T11:58:03.258Z,2.97
2023-03-29T12:00:33.764Z,3.40
2023-03-29T12:03:11.314Z,3.17
2023-03-29T12:05:45.368Z,2.63
2023-03-29T12:08:17.428Z,2.50
2023-03-29T12:10:51.423Z,3.00
2023-03-29T12:13:25.377Z,2.90
2023-03-29T12:15:58.019Z,2.90
2023-03-29T12:18:33.045Z,3.53
2023-03-29T12:21:03.330Z,4.00
2023-03-29T12:23:32.687Z,3.23
2023-03-29T12:26:07.438Z,2.93
2023-03-29T12:28:53.645Z,3.23
2023-03-29T12:31:31.241Z,3.17
2023-03-29T12:34:19.166Z,3.70
2023-03-29T12:37:02.048Z,2.60
2023-03-29T12:39:31.351Z,3.00
2023-03-29T12:42:08.026Z,2.73
2023-03-29T12:44:36.318Z,3.00
2023-03-29T12:47:03.974Z,2.87
2023-03-29T12:49:36.316Z,2.80
2023-03-29T12:52:09.865Z,4.00
2023-03-29T12:54:37.269Z,3.00
2023-03-29T12:57:21.296Z,3.60
2023-03-29T12:59:50.633Z,3.30
2023-03-29T13:02:34.795Z,2.83
2023-03-29T13:05:05.414Z,2.47
2023-03-29T13:07:46.275Z,3.00
2023-03-29T13:10:40.670Z,3.17
2023-03-29T13:13:28.350Z,2.57
2023-03-29T13:15:56.156Z,2.20
2023-03-29T13:18:36.742Z,2.50
2023-03-29T13:21:15.389Z,2.43
2023-03-29T13:23:52.114Z,2.30
2023-03-29T13:26:32.935Z,1.87
2023-03-29T13:29:18.753Z,2.50
2023-03-29T13:31:57.863Z,2.40
2023-03-29T13:34:37.810Z,2.60
2023-03-29T13:37:20.848Z,2.80
2023-03-29T13:39:51.439Z,2.63
2023-03-29T13:42:22.482Z,2.70
2023-03-29T13:44:50.441Z,2.60
2023-03-29T13:47:46.695Z,2.80
2023-03-29T13:50:34.428Z,2.37
2023-03-29T13:53:11.190Z,2.70
2023-03-29T13:55:46.069Z,2.93
2023-03-29T13:58:20.939Z,3.47
2023-03-29T14:00:54.230Z,2.80
2023-03-29T14:03:29.658Z,3.40
2023-03-29T14:06:00.630Z,3.30
2023-03-29T14:08:33.976Z,3.70
2023-03-29T14:11:05.857Z,3.60
2023-03-29T14:13:34.316Z,3.23
2023-03-29T14:16:04.460Z,3.87
2023-03-29T14:18:35.822Z,4.20
2023-03-29T14:21:03.415Z,3.40
2023-03-29T14:23:33.714Z,3.77
2023-03-29T14:26:10.556Z,3.50
2023-03-29T14:28:38.087Z,3.60
2023-03-29T14:31:07.889Z,3.80
2023-03-29T14:33:37.213Z,3.53
2023-03-29T14:36:06.354Z,3.33
2023-03-29T14:38:37.550Z,3.60
2023-03-29T14:41:05.571Z,3.50
2023-03-29T14:43:33.230Z,3.70
2023-03-29T14:46:05.510Z,3.60
2023-03-29T14:48:34.849Z,3.90
2023-03-29T14:51:02.724Z,3.77
2023-03-29T14:53:32.369Z,3.50
2023-03-29T14:56:01.938Z,3.33
2023-03-29T14:58:33.874Z,3.67
2023-03-29T15:01:06.253Z,4.17
2023-03-29T15:03:43.775Z,4.17
2023-03-29T15:06:13.095Z,5.07
2023-03-29T15:08:50.839Z,4.00
2023-03-29T15:11:28.596Z,4.57
2023-03-29T15:14:02.518Z,4.40
2023-03-29T15:16:31.246Z,5.20
2023-03-29T15:18:59.335Z,4.50
2023-03-29T15:21:32.133Z,4.20
2023-03-29T15:24:01.755Z,4.47
2023-03-29T15:26:33.527Z,5.13
2023-03-29T15:29:08.892Z,5.10
2023-03-29T15:31:37.988Z,5.23
2023-03-29T15:34:09.256Z,5.10
2023-03-29T15:36:42.141Z,4.80
2023-03-29T15:39:12.695Z,5.10
2023-03-29T15:41:41.644Z,5.17
2023-03-29T15:44:09.090Z,5.03
2023-03-29T15:46:36.611Z,5.87
2023-03-29T15:49:05.013Z,6.03
2023-03-29T15:51:32.933Z,8.53
2023-03-29T15:54:00.353Z,6.00
2023-03-29T15:56:27.880Z,6.53
2023-03-29T15:58:56.680Z,10.57
2023-03-29T16:01:33.718Z,15.40
2023-03-29T16:04:01.423Z,8.83
2023-03-29T16:06:30.221Z,6.40
2023-03-29T16:08:57.895Z,11.87
2023-03-29T16:11:25.396Z,8.30
2023-03-29T16:13:52.968Z,6.03
2023-03-29T16:16:22.432Z,5.90
2023-03-29T16:18:50.074Z,5.27
2023-03-29T16:21:19.088Z,9.93
2023-03-29T16:23:47.469Z,9.80
2023-03-29T16:26:16.183Z,12.70
2023-03-29T16:28:44.240Z,8.23
2023-03-29T16:31:12.724Z,9.60
2023-03-29T16:33:42.224Z,8.03
2023-03-29T16:36:10.233Z,8.70
2023-03-29T16:38:38.333Z,9.90
2023-03-29T16:41:07.170Z,7.83
2023-03-29T16:43:35.317Z,7.50
2023-03-29T16:46:02.987Z,6.47
2023-03-29T16:48:30.635Z,7.93
2023-03-29T16:50:59.382Z,6.73
2023-03-29T16:53:27.023Z,7.00
2023-03-29T16:55:54.430Z,7.77
2023-03-29T16:58:23.036Z,6.20
2023-03-29T17:00:51.878Z,6.33
2023-03-29T17:03:19.311Z,6.60
2023-03-29T17:05:50.315Z,8.37
2023-03-29T17:08:20.253Z,9.07
2023-03-29T17:10:47.716Z,9.10
2023-03-29T17:13:15.184Z,7.97
2023-03-29T17:15:42.662Z,19.87
2023-03-29T17:18:10.760Z,15.33
2023-03-29T17:20:39.911Z,11.50
2023-03-29T17:23:08.769Z,6.93
2023-03-29T17:25:37.763Z,6.10
2023-03-29T17:28:05.640Z,6.13
2023-03-29T17:30:34.904Z,6.13
2023-03-29T17:33:02.508Z,8.83
2023-03-29T17:35:30.166Z,13.27
2023-03-29T17:37:58.987Z,18.87
2023-03-29T17:40:27.038Z,11.60
2023-03-29T17:42:56.114Z,19.60
2023-03-29T17:45:23.634Z,26.93
2023-03-29T17:47:51.345Z,24.13
2023-03-29T17:50:19.071Z,21.23
2023-03-29T17:52:46.508Z,13.30
2023-03-29T17:55:15.212Z,11.03
2023-03-29T17:57:43.908Z,7.90
2023-03-29T18:00:14.785Z,12.70
2023-03-29T18:02:42.474Z,10.37
2023-03-29T18:05:10.501Z,7.87
2023-03-29T18:07:38.249Z,28.13
2023-03-29T18:10:07.220Z,14.67
2023-03-29T18:12:34.888Z,15.27
2023-03-29T18:15:02.313Z,22.87
2023-03-29T18:17:31.339Z,11.83
2023-03-29T18:19:58.863Z,9.97
2023-03-29T18:22:26.899Z,7.97
2023-03-29T18:24:54.874Z,15.60
2023-03-29T18:27:22.274Z,14.67
2023-03-29T18:29:49.744Z,14.40
2023-03-29T18:32:17.421Z,13.67
2023-03-29T18:34:46.260Z,27.37
2023-03-29T18:37:15.063Z,12.73
2023-03-29T18:39:43.024Z,78.60
2023-03-29T18:42:12.219Z,22.03
2023-03-29T18:44:41.137Z,11.13
2023-03-29T18:47:08.657Z,9.50
2023-03-29T18:49:36.682Z,11.97
2023-03-29T18:52:05.783Z,13.57
2023-03-29T18:54:33.464Z,31.90
2023-03-29T18:57:01.407Z,8.80
2023-03-29T18:59:28.879Z,34.50
2023-03-29T19:01:56.760Z,35.97
2023-03-29T19:04:26.427Z,10.63
2023-03-29T19:06:55.580Z,12.27
2023-03-29T19:09:24.446Z,7.40
2023-03-29T19:11:51.924Z,7.60
2023-03-29T19:14:23.508Z,8.70
2023-03-29T19:16:51.736Z,6.77
2023-03-29T19:19:20.015Z,10.70
2023-03-29T19:21:48.021Z,15.77
2023-03-29T19:24:15.721Z,23.67
2023-03-29T19:26:44.743Z,28.97
2023-03-29T19:29:12.486Z,47.87
2023-03-29T19:31:40.127Z,25.57
2023-03-29T19:34:09.622Z,47.40
2023-03-29T19:36:37.298Z,30.33
2023-03-29T19:39:05.022Z,23.23
2023-03-29T19:41:32.596Z,16.23
2023-03-29T19:44:01.660Z,11.33
2023-03-29T19:46:29.244Z,12.77
2023-03-29T19:48:56.808Z,23.73
2023-03-29T19:51:26.716Z,38.83
2023-03-29T19:53:55.039Z,31.83
2023-03-29T19:56:23.390Z,28.37
2023-03-29T19:58:51.138Z,15.00
2023-03-29T20:01:20.914Z,14.97
2023-03-29T20:03:49.200Z,9.67
2023-03-29T20:06:17.180Z,29.37
2023-03-29T20:08:44.831Z,7.57
2023-03-29T20:11:13.566Z,7.67
2023-03-29T20:13:43.218Z,7.67
2023-03-29T20:16:13.045Z,8.00
2023-03-29T20:18:41.799Z,8.03
2023-03-29T20:21:10.480Z,7.63
2023-03-29T20:23:38.443Z,8.50
2023-03-29T20:26:07.297Z,9.00
2023-03-29T20:28:37.487Z,22.47
2023-03-29T20:31:06.749Z,9.73
2023-03-29T20:33:34.650Z,8.83
2023-03-29T20:36:03.822Z,11.07
2023-03-29T20:38:31.305Z,9.23
2023-03-29T20:40:59.046Z,10.37
2023-03-29T20:43:26.509Z,8.83
2023-03-29T20:45:54.675Z,7.77
2023-03-29T20:48:24.262Z,8.90
2023-03-29T20:50:52.226Z,9.13
2023-03-29T20:53:21.311Z,12.53
2023-03-29T20:55:49.281Z,12.40
2023-03-29T20:58:16.884Z,9.40
2023-03-29T21:00:45.334Z,13.87
2023-03-29T21:03:12.845Z,7.70
2023-03-29T21:05:40.321Z,10.47
2023-03-29T21:08:08.408Z,11.10
2023-03-29T21:10:37.433Z,8.77
2023-03-29T21:13:04.857Z,9.80
2023-03-29T21:15:35.603Z,30.53
2023-03-29T21:18:04.193Z,18.60
2023-03-29T21:20:34.429Z,9.93
2023-03-29T21:23:01.894Z,10.77
2023-03-29T21:25:29.529Z,8.93
2023-03-29T21:27:58.374Z,10.00
2023-03-29T21:30:26.038Z,12.07
2023-03-29T21:32:53.514Z,10.67
2023-03-29T21:35:21.502Z,19.50
2023-03-29T21:37:48.910Z,14.23
2023-03-29T21:40:16.664Z,11.20
2023-03-29T21:42:44.078Z,11.63
2023-03-29T21:45:13.047Z,12.63
2023-03-29T21:47:40.603Z,16.17
2023-03-29T21:50:09.525Z,7.10
2023-03-29T21:52:37.766Z,12.93
2023-03-29T21:55:05.708Z,12.23
2023-03-29T21:57:33.526Z,11.93
2023-03-29T22:00:00.925Z,8.20
2023-03-29T22:02:29.693Z,16.47
2023-03-29T22:04:57.243Z,25.87
2023-03-29T22:07:24.678Z,9.83
2023-03-29T22:09:52.207Z,12.83
2023-03-29T22:12:19.678Z,11.80
2023-03-29T22:14:47.365Z,7.00
2023-03-29T22:17:15.953Z,8.93
2023-03-29T22:19:44.793Z,10.63
2023-03-29T22:22:14.701Z,12.00
2023-03-29T22:24:42.695Z,10.10
2023-03-29T22:27:10.429Z,12.13
2023-03-29T22:29:38.019Z,12.27
2023-03-29T22:32:06.199Z,15.30
2023-03-29T22:34:33.978Z,13.60
2023-03-29T22:37:02.731Z,22.43
2023-03-29T22:39:30.245Z,13.30
2023-03-29T22:41:57.697Z,15.63
2023-03-29T22:44:25.199Z,13.07
2023-03-29T22:46:52.698Z,22.33
2023-03-29T22:49:20.327Z,27.20
2023-03-29T22:51:47.720Z,15.73
2023-03-29T22:54:16.493Z,20.87
2023-03-29T22:56:44.027Z,12.83
2023-03-29T22:59:11.638Z,55.30
2023-03-29T23:01:39.218Z,25.40
2023-03-29T23:04:06.825Z,14.10
2023-03-29T23:06:34.507Z,8.27
2023-03-29T23:09:01.979Z,11.53
2023-03-29T23:11:30.754Z,9.67
2023-03-29T23:13:58.246Z,8.27
2023-03-29T23:16:25.925Z,15.60
2023-03-29T23:18:53.384Z,29.87
2023-03-29T23:21:21.047Z,14.13
2023-03-29T23:23:48.473Z,11.10
2023-03-29T23:26:15.977Z,14.73
2023-03-29T23:28:44.757Z,13.80
2023-03-29T23:31:18.364Z,22.80
2023-03-29T23:33:45.938Z,6.97
2023-03-29T23:36:15.628Z,10.37
2023-03-29T23:38:46.031Z,6.57
2023-03-29T23:41:14.178Z,6.50
2023-03-29T23:43:43.924Z,8.00
2023-03-29T23:46:15.170Z,9.13
2023-03-29T23:48:46.619Z,10.93
2023-03-29T23:51:14.112Z,11.33
2023-03-29T23:53:42.227Z,13.70
2023-03-29T23:56:09.702Z,10.73
2023-03-29T23:58:38.363Z,15.20
